Time,TemperatureF,DewpointF,PressureIn,WindDirection,WindDirectionDegrees,WindSpeedMPH,WindSpeedGustMPH,Humidity,HourlyPrecipIn,Conditions,Clouds,dailyrainin,SoftwareType,DateUTC
2013-02-06 00:00:00,70.2,60.7,30.03,SSW,202,0.0,0.0,72,0.00,CLR,,0.00,WeatherDisplay:10.37,2013-02-05 13:00:00,
2013-02-06 00:05:00,70.0,60.5,30.03,SSW,202,0.0,0.0,72,0.00,CLR,,0.00,WeatherDisplay:10.37,2013-02-05 13:05:00,
2013-02-06 00:10:00,69.6,60.2,30.03,SSW,202,0.0,0.0,72,0.00,CLR,,0.00,WeatherDisplay:10.37,2013-02-05 13:10:00,
2013-02-06 00:15:00,69.6,60.6,30.03,SSW,202,0.0,0.0,73,0.00,CLR,,0.00,WeatherDisplay:10.37,2013-02-05 13:15:00,
2013-02-06 00:20:00,69.4,60.4,30.03,SSW,202,0.0,0.0,73,0.00,CLR,,0.00,WeatherDisplay:10.37,2013-02-05 13:20:00,
2013-02-06 00:25:00,69.4,60.4,30.03,SSW,202,0.0,0.0,73,0.00,CLR,,0.00,WeatherDisplay:10.37,2013-02-05 13:25:00,
2013-02-06 00:30:00,69.1,60.4,30.03,SSW,207,0.0,0.0,74,0.00,CLR,,0.00,WeatherDisplay:10.37,2013-02-05 13:30:00,
2013-02-06 00:35:00,69.1,60.4,30.03,SSW,202,0.0,0.0,74,0.00,CLR,,0.00,WeatherDisplay:10.37,2013-02-05 13:35:00,
2013-02-06 00:40:00,68.9,60.3,30.03,SSW,196,0.0,0.0,74,0.00,CLR,,0.00,WeatherDisplay:10.37,2013-02-05 13:40:00,
2013-02-06 00:45:00,68.9,60.6,30.02,SSW,201,0.0,0.0,75,0.00,CLR,,0.00,WeatherDisplay:10.37,2013-02-05 13:45:00,
2013-02-06 00:50:00,68.9,60.6,30.02,South,190,0.0,0.0,75,0.00,CLR,,0.00,WeatherDisplay:10.37,2013-02-05 13:50:00,
2013-02-06 00:55:00,68.9,60.6,30.03,ENE,65,0.0,0.0,75,0.00,CLR,,0.00,WeatherDisplay:10.37,2013-02-05 13:55:00,
2013-02-06 01:00:00,68.9,61.0,30.02,NE,49,0.0,0.0,76,0.00,CLR,,0.00,WeatherDisplay:10.37,2013-02-05 14:00:00,
2013-02-06 01:05:00,69.0,61.1,30.03,ENE,59,0.0,0.0,76,0.00,CLR,,0.00,WeatherDisplay:10.37,2013-02-05 14:05:00,
2013-02-06 01:10:00,69.1,61.2,30.02,NNE,17,0.0,0.0,76,0.00,CLR,,0.00,WeatherDisplay:10.37,2013-02-05 14:10:00,
2013-02-06 01:15:00,69.3,61.4,30.02,NNE,12,0.0,0.0,76,0.00,CLR,,0.00,WeatherDisplay:10.37,2013-02-05 14:15:00,
2013-02-06 01:20:00,69.4,61.5,30.02,NNE,22,0.0,0.0,76,0.00,CLR,,0.00,WeatherDisplay:10.37,2013-02-05 14:20:00,
2013-02-06 01:25:00,69.4,61.5,30.02,NNE,30,0.0,0.0,76,0.00,CLR,,0.00,WeatherDisplay:10.37,2013-02-05 14:25:00,
2013-02-06 01:30:00,69.4,61.5,30.01,NE,41,0.0,0.0,76,0.00,CLR,,0.00,WeatherDisplay:10.37,2013-02-05 14:30:00,
2013-02-06 01:35:00,69.4,61.5,30.01,ENE,70,0.0,0.0,76,0.00,CLR,,0.00,WeatherDisplay:10.37,2013-02-05 14:35:00,
2013-02-06 01:40:00,69.4,61.5,30.02,SE,132,0.0,0.0,76,0.00,CLR,,0.00,WeatherDisplay:10.37,2013-02-05 14:40:00,
2013-02-06 01:45:00,69.4,61.5,30.02,South,171,0.0,0.0,76,0.00,CLR,,0.00,WeatherDisplay:10.37,2013-02-05 14:45:00,
2013-02-06 01:50:00,69.4,61.5,30.01,South,188,0.0,2.0,76,0.00,CLR,,0.00,WeatherDisplay:10.37,2013-02-05 14:50:00,
2013-02-06 01:55:00,69.4,61.5,30.01,SSW,201,0.0,0.0,76,0.00,CLR,,0.00,WeatherDisplay:10.37,2013-02-05 14:55:00,
2013-02-06 02:00:00,69.4,61.5,30.01,SSW,204,0.0,0.0,76,0.00,CLR,,0.00,WeatherDisplay:10.37,2013-02-05 15:00:00,
2013-02-06 02:05:00,69.4,61.5,30.01,SSW,200,0.0,0.0,76,0.00,CLR,,0.00,WeatherDisplay:10.37,2013-02-05 15:05:00,
2013-02-06 02:10:00,69.4,61.5,30.00,SSW,201,0.0,0.0,76,0.00,CLR,,0.00,WeatherDisplay:10.37,2013-02-05 15:10:00,
2013-02-06 02:15:00,69.4,61.5,30.00,SSW,210,0.0,0.0,76,0.00,CLR,,0.00,WeatherDisplay:10.37,2013-02-05 15:15:00,
2013-02-06 02:20:00,69.4,61.5,30.00,SSW,211,0.0,0.0,76,0.00,CLR,,0.00,WeatherDisplay:10.37,2013-02-05 15:20:00,
2013-02-06 02:25:00,69.4,61.5,30.00,SW,218,0.0,0.0,76,0.00,CLR,,0.00,WeatherDisplay:10.37,2013-02-05 15:25:00,
2013-02-06 02:30:00,69.4,61.5,30.00,SW,225,0.0,0.0,76,0.00,CLR,,0.00,WeatherDisplay:10.37,2013-02-05 15:30:00,
2013-02-06 02:35:00,69.4,61.5,30.00,SW,225,0.0,0.0,76,0.00,CLR,,0.00,WeatherDisplay:10.37,2013-02-05 15:35:00,
2013-02-06 02:40:00,69.4,61.5,30.00,SW,225,0.0,0.0,76,0.00,CLR,,0.00,WeatherDisplay:10.37,2013-02-05 15:40:00,
2013-02-06 02:45:00,69.4,61.5,30.00,SW,225,0.0,0.0,76,0.00,CLR,,0.00,WeatherDisplay:10.37,2013-02-05 15:45:00,
2013-02-06 02:50:00,69.4,61.5,30.00,SW,225,0.0,0.0,76,0.00,CLR,,0.00,WeatherDisplay:10.37,2013-02-05 15:50:00,
2013-02-06 02:55:00,69.3,61.4,30.00,SW,218,0.0,0.0,76,0.00,CLR,,0.00,WeatherDisplay:10.37,2013-02-05 15:55:00,
2013-02-06 03:00:00,69.3,61.4,30.00,SSW,206,0.0,0.0,76,0.00,CLR,,0.00,WeatherDisplay:10.37,2013-02-05 16:00:00,
2013-02-06 03:05:00,69.1,61.6,30.00,SSW,202,0.0,0.0,77,0.00,CLR,,0.00,WeatherDisplay:10.37,2013-02-05 16:05:00,
2013-02-06 03:10:00,69.1,61.6,30.00,SSW,202,0.0,0.0,77,0.00,CLR,,0.00,WeatherDisplay:10.37,2013-02-05 16:10:00,
2013-02-06 03:15:00,69.1,61.6,29.99,SSW,202,0.0,0.0,77,0.00,CLR,,0.00,WeatherDisplay:10.37,2013-02-05 16:15:00,
2013-02-06 03:20:00,69.1,61.6,29.99,SW,235,0.0,0.0,77,0.00,CLR,,0.00,WeatherDisplay:10.37,2013-02-05 16:20:00,
2013-02-06 03:25:00,69.1,61.6,29.99,West,270,0.0,0.0,77,0.00,CLR,,0.00,WeatherDisplay:10.37,2013-02-05 16:25:00,
2013-02-06 03:30:00,69.0,61.5,29.99,West,270,0.0,0.0,77,0.00,CLR,,0.00,WeatherDisplay:10.37,2013-02-05 16:30:00,
2013-02-06 03:35:00,68.9,61.4,29.99,West,270,0.0,0.0,77,0.00,CLR,,0.00,WeatherDisplay:10.37,2013-02-05 16:35:00,
2013-02-06 03:40:00,68.9,61.4,29.99,West,260,0.0,0.0,77,0.00,CLR,,0.00,WeatherDisplay:10.37,2013-02-05 16:40:00,
2013-02-06 03:45:00,68.9,61.4,29.99,West,261,0.0,0.0,77,0.00,CLR,,0.00,WeatherDisplay:10.37,2013-02-05 16:45:00,
2013-02-06 03:50:00,68.7,61.2,29.99,West,270,0.0,0.0,77,0.00,CLR,,0.00,WeatherDisplay:10.37,2013-02-05 16:50:00,
2013-02-06 03:55:00,68.7,61.2,29.99,West,267,0.0,0.0,77,0.00,CLR,,0.00,WeatherDisplay:10.37,2013-02-05 16:55:00,
2013-02-06 04:00:00,68.7,61.2,29.98,West,261,0.0,0.0,77,0.00,CLR,,0.00,WeatherDisplay:10.37,2013-02-05 17:00:00,
2013-02-06 04:05:00,68.7,61.2,29.99,West,265,0.0,0.0,77,0.00,CLR,,0.00,WeatherDisplay:10.37,2013-02-05 17:05:00,
2013-02-06 04:10:00,68.5,61.0,29.98,West,270,0.0,0.0,77,0.00,CLR,,0.00,WeatherDisplay:10.37,2013-02-05 17:10:00,
2013-02-06 04:15:00,68.4,60.9,29.98,WSW,257,0.0,0.0,77,0.00,CLR,,0.00,WeatherDisplay:10.37,2013-02-05 17:15:00,
2013-02-06 04:20:00,68.4,61.2,29.98,WSW,248,0.0,0.0,78,0.00,CLR,,0.00,WeatherDisplay:10.37,2013-02-05 17:20:00,
2013-02-06 04:25:00,68.2,61.1,29.98,WSW,248,0.0,0.0,78,0.00,CLR,,0.00,WeatherDisplay:10.37,2013-02-05 17:25:00,
2013-02-06 04:30:00,68.2,61.1,29.98,WSW,248,0.0,0.0,78,0.00,CLR,,0.00,WeatherDisplay:10.37,2013-02-05 17:30:00,
2013-02-06 04:35:00,67.9,60.8,29.98,WSW,248,0.0,0.0,78,0.00,CLR,,0.00,WeatherDisplay:10.37,2013-02-05 17:35:00,
2013-02-06 04:40:00,67.8,60.7,29.98,West,261,0.0,0.0,78,0.00,CLR,,0.00,WeatherDisplay:10.37,2013-02-05 17:40:00,
2013-02-06 04:45:00,67.8,60.7,29.98,West,273,0.0,0.0,78,0.00,CLR,,0.00,WeatherDisplay:10.37,2013-02-05 17:45:00,
2013-02-06 04:50:00,67.6,60.5,29.98,West,267,0.0,0.0,78,0.00,CLR,,0.00,WeatherDisplay:10.37,2013-02-05 17:50:00,
2013-02-06 04:55:00,67.6,60.5,29.98,West,280,0.0,0.0,78,0.00,CLR,,0.00,WeatherDisplay:10.37,2013-02-05 17:55:00,
2013-02-06 05:00:00,67.3,60.2,29.98,NW,321,0.0,0.0,78,0.00,CLR,,0.00,WeatherDisplay:10.37,2013-02-05 18:00:00,
2013-02-06 05:05:00,67.3,60.2,29.97,ENE,71,0.0,0.0,78,0.00,CLR,,0.00,WeatherDisplay:10.37,2013-02-05 18:05:00,
2013-02-06 05:10:00,67.1,60.0,29.97,SE,136,0.0,0.0,78,0.00,CLR,,0.00,WeatherDisplay:10.37,2013-02-05 18:10:00,
2013-02-06 05:15:00,66.9,59.8,29.97,SSE,159,0.0,0.0,78,0.00,CLR,,0.00,WeatherDisplay:10.37,2013-02-05 18:15:00,
2013-02-06 05:20:00,66.9,59.8,29.97,SSE,159,0.0,0.0,78,0.00,CLR,,0.00,WeatherDisplay:10.37,2013-02-05 18:20:00,
2013-02-06 05:25:00,66.7,59.7,29.98,SSE,158,0.0,0.0,78,0.00,CLR,,0.00,WeatherDisplay:10.37,2013-02-05 18:25:00,
2013-02-06 05:30:00,66.6,59.5,29.98,SSE,158,0.0,0.0,78,0.00,CLR,,0.00,WeatherDisplay:10.37,2013-02-05 18:30:00,
2013-02-06 05:35:00,66.4,59.3,29.98,SSE,158,0.0,0.0,78,0.00,CLR,,0.00,WeatherDisplay:10.37,2013-02-05 18:35:00,
2013-02-06 05:40:00,66.4,59.3,29.98,SSE,158,0.0,0.0,78,0.00,CLR,,0.00,WeatherDisplay:10.37,2013-02-05 18:40:00,
2013-02-06 05:45:00,66.4,59.3,29.98,SSE,158,0.0,0.0,78,0.00,CLR,,0.00,WeatherDisplay:10.37,2013-02-05 18:45:00,
2013-02-06 05:50:00,66.4,59.7,29.98,SSE,158,0.0,0.0,79,0.00,CLR,,0.00,WeatherDisplay:10.37,2013-02-05 18:50:00,
2013-02-06 05:55:00,66.2,59.5,29.98,SSE,158,0.0,0.0,79,0.00,CLR,,0.00,WeatherDisplay:10.37,2013-02-05 18:55:00,
2013-02-06 06:00:00,66.0,59.3,29.98,SSE,158,0.0,0.0,79,0.00,CLR,,0.00,WeatherDisplay:10.37,2013-02-05 19:00:00,
2013-02-06 06:05:00,66.0,59.3,29.98,SSE,158,0.0,0.0,79,0.00,CLR,,0.00,WeatherDisplay:10.37,2013-02-05 19:05:00,
2013-02-06 06:10:00,66.0,59.3,29.98,SSE,158,0.0,0.0,79,0.00,CLR,,0.00,WeatherDisplay:10.37,2013-02-05 19:10:00,
2013-02-06 06:15:00,66.0,59.3,29.98,SSE,162,0.0,0.0,79,0.00,CLR,,0.00,WeatherDisplay:10.37,2013-02-05 19:15:00,
2013-02-06 06:20:00,66.0,58.9,29.98,SSE,161,0.0,0.0,78,0.00,CLR,,0.00,WeatherDisplay:10.37,2013-02-05 19:20:00,
2013-02-06 06:25:00,65.8,58.8,29.99,SSE,158,0.0,0.0,78,0.00,CLR,,0.00,WeatherDisplay:10.37,2013-02-05 19:25:00,
2013-02-06 06:30:00,65.7,59.0,29.99,SSE,158,0.0,0.0,79,0.00,CLR,,0.00,WeatherDisplay:10.37,2013-02-05 19:30:00,
2013-02-06 06:35:00,65.6,58.9,29.99,SSE,158,0.0,0.0,79,0.00,CLR,,0.00,WeatherDisplay:10.37,2013-02-05 19:35:00,
2013-02-06 06:40:00,65.5,58.8,29.99,SSE,158,0.0,0.0,79,0.00,CLR,,0.00,WeatherDisplay:10.37,2013-02-05 19:40:00,
2013-02-06 06:45:00,65.5,58.8,29.99,SSE,158,0.0,0.0,79,0.00,CLR,,0.00,WeatherDisplay:10.37,2013-02-05 19:45:00,
2013-02-06 06:50:00,65.5,58.8,29.99,SSE,160,0.0,0.0,79,0.00,CLR,,0.00,WeatherDisplay:10.37,2013-02-05 19:50:00,
2013-02-06 06:55:00,65.5,58.8,30.00,SSE,160,0.0,0.0,79,0.00,CLR,,0.00,WeatherDisplay:10.37,2013-02-05 19:55:00,
2013-02-06 07:00:00,65.5,58.8,30.00,SSE,158,0.0,0.0,79,0.00,CLR,,0.00,WeatherDisplay:10.37,2013-02-05 20:00:00,
2013-02-06 07:05:00,65.5,59.1,30.00,SE,145,0.0,0.0,80,0.00,CLR,,0.00,WeatherDisplay:10.37,2013-02-05 20:05:00,
2013-02-06 07:10:00,65.8,59.4,30.00,SE,135,0.0,0.0,80,0.00,CLR,,0.00,WeatherDisplay:10.37,2013-02-05 20:10:00,
2013-02-06 07:15:00,65.8,59.5,30.00,SE,135,0.0,0.0,80,0.00,CLR,,0.00,WeatherDisplay:10.37,2013-02-05 20:15:00,
2013-02-06 07:20:00,65.8,59.8,30.00,ESE,112,0.0,0.0,81,0.00,CLR,,0.00,WeatherDisplay:10.37,2013-02-05 20:20:00,
2013-02-06 07:25:00,66.0,60.0,30.00,ENE,62,0.0,0.0,81,0.00,CLR,,0.00,WeatherDisplay:10.37,2013-02-05 20:25:00,
2013-02-06 07:30:00,66.0,60.0,30.00,NE,45,0.0,0.0,81,0.00,CLR,,0.00,WeatherDisplay:10.37,2013-02-05 20:30:00,
2013-02-06 07:35:00,66.0,60.0,30.00,NE,41,0.0,0.0,81,0.00,CLR,,0.00,WeatherDisplay:10.37,2013-02-05 20:35:00,
2013-02-06 07:40:00,66.3,60.3,30.00,NE,46,0.0,0.0,81,0.00,CLR,,0.00,WeatherDisplay:10.37,2013-02-05 20:40:00,
2013-02-06 07:45:00,66.5,60.4,30.00,NE,52,0.0,0.0,81,0.00,CLR,,0.00,WeatherDisplay:10.37,2013-02-05 20:45:00,
2013-02-06 07:50:00,66.7,60.7,30.00,NE,46,0.0,0.0,81,0.00,CLR,,0.00,WeatherDisplay:10.37,2013-02-05 20:50:00,
2013-02-06 07:55:00,66.7,60.7,30.01,NE,43,0.0,0.0,81,0.00,CLR,,0.00,WeatherDisplay:10.37,2013-02-05 20:55:00,
2013-02-06 08:00:00,66.9,60.9,30.00,NE,36,0.0,2.0,81,0.00,CLR,,0.00,WeatherDisplay:10.37,2013-02-05 21:00:00,
2013-02-06 08:05:00,67.3,61.2,30.01,NE,52,0.0,0.0,81,0.00,CLR,,0.00,WeatherDisplay:10.37,2013-02-05 21:05:00,
2013-02-06 08:10:00,67.6,61.6,30.01,SE,126,0.0,0.0,81,0.00,CLR,,0.00,WeatherDisplay:10.37,2013-02-05 21:10:00,
2013-02-06 08:15:00,67.8,61.8,30.01,SSW,211,0.0,0.0,81,0.00,CLR,,0.00,WeatherDisplay:10.37,2013-02-05 21:15:00,
2013-02-06 08:20:00,68.2,62.1,30.01,SSW,210,0.0,0.0,81,0.00,CLR,,0.00,WeatherDisplay:10.37,2013-02-05 21:20:00,
2013-02-06 08:25:00,68.7,62.7,30.01,South,187,0.0,0.0,81,0.00,CLR,,0.00,WeatherDisplay:10.37,2013-02-05 21:25:00,
2013-02-06 08:30:00,69.1,63.4,30.01,NW,323,0.0,2.0,82,0.00,CLR,,0.00,WeatherDisplay:10.37,2013-02-05 21:30:00,
2013-02-06 08:35:00,69.6,63.2,30.01,NNW,337,0.0,0.0,80,0.00,CLR,,0.00,WeatherDisplay:10.37,2013-02-05 21:35:00,
2013-02-06 08:40:00,70.3,63.9,30.01,NNW,341,0.0,0.0,80,0.00,CLR,,0.00,WeatherDisplay:10.37,2013-02-05 21:40:00,
2013-02-06 08:45:00,70.9,64.0,30.01,SW,218,0.0,0.0,79,0.00,CLR,,0.00,WeatherDisplay:10.37,2013-02-05 21:45:00,
2013-02-06 08:50:00,71.4,64.2,30.01,SE,137,0.0,1.0,78,0.00,CLR,,0.00,WeatherDisplay:10.37,2013-02-05 21:50:00,
2013-02-06 08:55:00,72.0,64.4,30.01,SE,136,0.0,0.0,77,0.00,CLR,,0.00,WeatherDisplay:10.37,2013-02-05 21:55:00,
2013-02-06 09:00:00,72.4,64.0,30.01,SSE,155,0.0,0.0,75,0.00,CLR,,0.00,WeatherDisplay:10.37,2013-02-05 22:00:00,
2013-02-06 09:05:00,72.9,63.8,30.01,SSE,164,0.0,2.0,73,0.00,CLR,,0.00,WeatherDisplay:10.37,2013-02-05 22:05:00,
2013-02-06 09:10:00,73.4,63.8,30.01,East,80,0.0,2.0,72,0.00,CLR,,0.00,WeatherDisplay:10.37,2013-02-05 22:10:00,
2013-02-06 09:15:00,73.8,63.4,30.01,ENE,58,0.0,0.0,70,0.00,CLR,,0.00,WeatherDisplay:10.37,2013-02-05 22:15:00,
2013-02-06 09:20:00,74.2,63.8,30.01,ESE,105,0.0,2.0,70,0.00,CLR,,0.00,WeatherDisplay:10.37,2013-02-05 22:20:00,
2013-02-06 09:25:00,74.5,63.6,30.01,East,95,0.0,0.0,69,0.00,CLR,,0.00,WeatherDisplay:10.37,2013-02-05 22:25:00,
2013-02-06 09:30:00,75.0,63.7,30.01,North,9,1.0,3.0,68,0.00,CLR,,0.00,WeatherDisplay:10.37,2013-02-05 22:30:00,
2013-02-06 09:35:00,75.2,64.0,30.01,East,96,0.0,2.0,68,0.00,CLR,,0.00,WeatherDisplay:10.37,2013-02-05 22:35:00,
2013-02-06 09:40:00,75.5,63.8,30.01,SSW,198,0.0,0.0,67,0.00,CLR,,0.00,WeatherDisplay:10.37,2013-02-05 22:40:00,
2013-02-06 09:45:00,75.5,63.8,30.01,SSW,195,0.0,0.0,67,0.00,CLR,,0.00,WeatherDisplay:10.37,2013-02-05 22:45:00,
2013-02-06 09:50:00,76.1,64.4,30.01,SSW,211,2.0,4.0,67,0.00,CLR,,0.00,WeatherDisplay:10.37,2013-02-05 22:50:00,
2013-02-06 09:55:00,77.2,64.9,30.01,SSW,204,5.0,6.0,66,0.00,CLR,,0.00,WeatherDisplay:10.37,2013-02-05 22:55:00,
2013-02-06 10:00:00,78.4,64.7,30.00,SSW,209,1.0,3.0,63,0.00,CLR,,0.00,WeatherDisplay:10.37,2013-02-05 23:00:00,
2013-02-06 10:10:00,79.0,63.9,30.00,North,9,1.0,2.0,60,0.00,CLR,,0.00,WeatherDisplay:10.37,2013-02-05 23:10:00,
2013-02-06 10:15:00,79.2,63.6,30.00,SW,235,2.0,10.0,59,0.00,CLR,,0.00,WeatherDisplay:10.37,2013-02-05 23:15:00,
2013-02-06 10:25:00,79.5,62.9,30.00,ESE,106,1.0,5.0,57,0.00,CLR,,0.00,WeatherDisplay:10.37,2013-02-05 23:25:00,
2013-02-06 10:30:00,79.4,62.4,30.00,NE,47,2.0,4.0,56,0.00,CLR,,0.00,WeatherDisplay:10.37,2013-02-05 23:30:00,
2013-02-06 10:35:00,79.5,62.4,30.00,NE,44,0.0,3.0,56,0.00,CLR,,0.00,WeatherDisplay:10.37,2013-02-05 23:35:00,
2013-02-06 10:40:00,79.7,62.1,30.00,South,179,1.0,6.0,55,0.00,CLR,,0.00,WeatherDisplay:10.37,2013-02-05 23:40:00,
2013-02-06 10:45:00,80.0,62.9,30.00,SSW,192,1.0,8.0,56,0.00,CLR,,0.00,WeatherDisplay:10.37,2013-02-05 23:45:00,
2013-02-06 10:50:00,80.2,62.6,30.00,NNE,27,3.0,5.0,55,0.00,CLR,,0.00,WeatherDisplay:10.37,2013-02-05 23:50:00,
2013-02-06 10:55:00,80.2,62.6,30.00,NE,40,2.0,7.0,55,0.00,CLR,,0.00,WeatherDisplay:10.37,2013-02-05 23:55:00,
2013-02-06 11:00:00,80.2,62.1,30.00,NE,35,1.0,7.0,54,0.00,CLR,,0.00,WeatherDisplay:10.37,2013-02-06 00:00:00,
2013-02-06 11:05:00,80.2,62.1,30.00,NE,45,0.0,7.0,54,0.00,CLR,,0.00,WeatherDisplay:10.37,2013-02-06 00:05:00,
2013-02-06 11:10:00,80.4,62.2,30.00,NE,53,2.0,5.0,54,0.00,CLR,,0.00,WeatherDisplay:10.37,2013-02-06 00:10:00,
2013-02-06 11:15:00,80.5,62.4,29.99,NNW,333,2.0,8.0,54,0.00,CLR,,0.00,WeatherDisplay:10.37,2013-02-06 00:15:00,
2013-02-06 11:20:00,80.6,62.4,30.00,WNW,294,3.0,6.0,54,0.00,CLR,,0.00,WeatherDisplay:10.37,2013-02-06 00:20:00,
2013-02-06 11:25:00,80.9,62.7,30.00,SSW,197,0.0,5.0,54,0.00,CLR,,0.00,WeatherDisplay:10.37,2013-02-06 00:25:00,
2013-02-06 11:30:00,81.3,62.5,29.99,East,98,2.0,6.0,53,0.00,CLR,,0.00,WeatherDisplay:10.37,2013-02-06 00:30:00,
2013-02-06 11:35:00,81.3,62.6,29.99,NE,51,1.0,4.0,53,0.00,CLR,,0.00,WeatherDisplay:10.37,2013-02-06 00:35:00,
2013-02-06 11:40:00,81.3,62.0,29.99,SW,230,1.0,7.0,52,0.00,CLR,,0.00,WeatherDisplay:10.37,2013-02-06 00:40:00,
2013-02-06 11:45:00,81.3,62.0,29.99,North,3,1.0,5.0,52,0.00,CLR,,0.00,WeatherDisplay:10.37,2013-02-06 00:45:00,
2013-02-06 11:50:00,81.6,62.3,29.99,North,359,2.0,5.0,52,0.00,CLR,,0.00,WeatherDisplay:10.37,2013-02-06 00:50:00,
2013-02-06 11:55:00,82.0,62.6,29.99,NNW,334,1.0,5.0,52,0.00,CLR,,0.00,WeatherDisplay:10.37,2013-02-06 00:55:00,
2013-02-06 12:00:00,82.0,62.1,29.99,NW,323,1.0,4.0,51,0.00,CLR,,0.00,WeatherDisplay:10.37,2013-02-06 01:00:00,
2013-02-06 12:05:00,82.2,62.3,29.99,NW,319,2.0,6.0,51,0.00,CLR,,0.00,WeatherDisplay:10.37,2013-02-06 01:05:00,
2013-02-06 12:10:00,82.3,62.4,29.99,NNE,18,3.0,7.0,51,0.00,CLR,,0.00,WeatherDisplay:10.37,2013-02-06 01:10:00,
2013-02-06 12:15:00,82.6,62.6,29.99,NNE,28,1.0,8.0,51,0.00,CLR,,0.00,WeatherDisplay:10.37,2013-02-06 01:15:00,
2013-02-06 12:20:00,82.8,62.2,29.98,NNE,19,3.0,7.0,50,0.00,CLR,,0.00,WeatherDisplay:10.37,2013-02-06 01:20:00,
2013-02-06 12:25:00,82.9,62.4,29.98,NNE,29,2.0,6.0,50,0.00,CLR,,0.00,WeatherDisplay:10.37,2013-02-06 01:25:00,
2013-02-06 12:30:00,82.9,61.8,29.98,NE,34,1.0,4.0,49,0.00,CLR,,0.00,WeatherDisplay:10.37,2013-02-06 01:30:00,
2013-02-06 12:40:00,83.1,62.0,29.97,ENE,72,3.0,13.0,49,0.00,CLR,,0.00,WeatherDisplay:10.37,2013-02-06 01:40:00,
2013-02-06 12:45:00,83.2,62.1,29.97,ENE,73,3.0,8.0,49,0.00,CLR,,0.00,WeatherDisplay:10.37,2013-02-06 01:45:00,
2013-02-06 12:50:00,83.1,62.0,29.97,ENE,63,5.0,8.0,49,0.00,CLR,,0.00,WeatherDisplay:10.37,2013-02-06 01:50:00,
2013-02-06 12:55:00,83.1,62.0,29.97,ENE,63,0.0,8.0,49,0.00,CLR,,0.00,WeatherDisplay:10.37,2013-02-06 01:55:00,
2013-02-06 13:00:00,83.5,62.3,29.96,ENE,74,1.0,6.0,49,0.00,CLR,,0.00,WeatherDisplay:10.37,2013-02-06 02:00:00,
2013-02-06 13:05:00,83.9,62.7,29.96,NNW,335,1.0,8.0,49,0.00,CLR,,0.00,WeatherDisplay:10.37,2013-02-06 02:05:00,
2013-02-06 13:10:00,84.0,63.4,29.96,NNW,345,2.0,12.0,50,0.00,CLR,,0.00,WeatherDisplay:10.37,2013-02-06 02:10:00,
2013-02-06 13:15:00,84.0,63.4,29.96,ENE,61,3.0,7.0,50,0.00,CLR,,0.00,WeatherDisplay:10.37,2013-02-06 02:15:00,
2013-02-06 13:20:00,84.0,63.4,29.96,NNE,32,3.0,8.0,50,0.00,CLR,,0.00,WeatherDisplay:10.37,2013-02-06 02:20:00,
2013-02-06 13:25:00,84.0,62.8,29.96,NE,48,2.0,6.0,49,0.00,CLR,,0.00,WeatherDisplay:10.37,2013-02-06 02:25:00,
2013-02-06 13:30:00,84.0,63.4,29.96,ESE,104,2.0,7.0,50,0.00,CLR,,0.00,WeatherDisplay:10.37,2013-02-06 02:30:00,
2013-02-06 13:35:00,84.3,63.1,29.96,NE,56,3.0,7.0,49,0.00,CLR,,0.00,WeatherDisplay:10.37,2013-02-06 02:35:00,
2013-02-06 13:40:00,84.2,63.6,29.95,NE,46,2.0,7.0,50,0.00,CLR,,0.00,WeatherDisplay:10.37,2013-02-06 02:40:00,
2013-02-06 13:45:00,84.1,63.5,29.95,WSW,252,1.0,5.0,50,0.00,CLR,,0.00,WeatherDisplay:10.37,2013-02-06 02:45:00,
2013-02-06 13:50:00,84.0,63.9,29.95,ENE,74,2.0,8.0,51,0.00,CLR,,0.00,WeatherDisplay:10.37,2013-02-06 02:50:00,
2013-02-06 13:55:00,84.0,63.9,29.95,SW,230,5.0,7.0,51,0.00,CLR,,0.00,WeatherDisplay:10.37,2013-02-06 02:55:00,
2013-02-06 14:00:00,83.9,63.2,29.95,NNW,333,5.0,13.0,50,0.00,CLR,,0.00,WeatherDisplay:10.37,2013-02-06 03:00:00,
2013-02-06 14:05:00,83.5,62.9,29.94,East,100,2.0,11.0,50,0.00,CLR,,0.00,WeatherDisplay:10.37,2013-02-06 03:05:00,
2013-02-06 14:10:00,83.3,63.2,29.94,SE,124,3.0,10.0,51,0.00,CLR,,0.00,WeatherDisplay:10.37,2013-02-06 03:10:00,
2013-02-06 14:15:00,83.3,63.8,29.94,East,96,3.0,8.0,52,0.00,CLR,,0.00,WeatherDisplay:10.37,2013-02-06 03:15:00,
2013-02-06 14:20:00,83.1,63.7,29.94,ENE,59,2.0,8.0,52,0.00,CLR,,0.00,WeatherDisplay:10.37,2013-02-06 03:20:00,
2013-02-06 14:25:00,83.1,64.2,29.94,North,355,2.0,7.0,53,0.00,CLR,,0.00,WeatherDisplay:10.37,2013-02-06 03:25:00,
2013-02-06 14:30:00,83.2,64.2,29.94,NNE,24,3.0,8.0,53,0.00,CLR,,0.00,WeatherDisplay:10.37,2013-02-06 03:30:00,
2013-02-06 14:35:00,83.1,63.7,29.94,NE,46,1.0,12.0,52,0.00,CLR,,0.00,WeatherDisplay:10.37,2013-02-06 03:35:00,
2013-02-06 14:40:00,83.5,64.0,29.93,NNE,15,3.0,8.0,52,0.00,CLR,,0.00,WeatherDisplay:10.37,2013-02-06 03:40:00,
2013-02-06 14:45:00,83.5,63.4,29.94,NNE,24,2.0,9.0,51,0.00,CLR,,0.00,WeatherDisplay:10.37,2013-02-06 03:45:00,
2013-02-06 14:50:00,83.5,63.5,29.94,NE,43,1.0,7.0,51,0.00,CLR,,0.00,WeatherDisplay:10.37,2013-02-06 03:50:00,
2013-02-06 14:55:00,83.8,63.2,29.93,East,97,0.0,7.0,50,0.00,CLR,,0.00,WeatherDisplay:10.37,2013-02-06 03:55:00,
2013-02-06 15:00:00,83.8,63.2,29.93,ESE,112,5.0,8.0,50,0.00,CLR,,0.00,WeatherDisplay:10.37,2013-02-06 04:00:00,
2013-02-06 15:05:00,84.0,63.4,29.93,ENE,78,2.0,8.0,50,0.00,CLR,,0.00,WeatherDisplay:10.37,2013-02-06 04:05:00,
2013-02-06 15:10:00,84.0,62.2,29.93,SE,130,3.0,8.0,48,0.00,CLR,,0.00,WeatherDisplay:10.37,2013-02-06 04:10:00,
2013-02-06 15:15:00,84.0,62.2,29.93,East,81,3.0,8.0,48,0.00,CLR,,0.00,WeatherDisplay:10.37,2013-02-06 04:15:00,
2013-02-06 15:20:00,83.8,61.5,29.92,North,5,2.0,6.0,47,0.00,CLR,,0.00,WeatherDisplay:10.37,2013-02-06 04:20:00,
2013-02-06 15:25:00,83.9,61.5,29.93,NNW,338,0.0,6.0,47,0.00,CLR,,0.00,WeatherDisplay:10.37,2013-02-06 04:25:00,
2013-02-06 15:30:00,84.2,61.8,29.92,ENE,67,5.0,7.0,47,0.00,CLR,,0.00,WeatherDisplay:10.37,2013-02-06 04:30:00,
2013-02-06 15:35:00,84.4,61.9,29.92,ENE,68,2.0,7.0,47,0.00,CLR,,0.00,WeatherDisplay:10.37,2013-02-06 04:35:00,
2013-02-06 15:40:00,84.4,61.3,29.92,ENE,61,1.0,7.0,46,0.00,CLR,,0.00,WeatherDisplay:10.37,2013-02-06 04:40:00,
2013-02-06 15:45:00,84.4,61.3,29.92,ENE,67,3.0,7.0,46,0.00,CLR,,0.00,WeatherDisplay:10.37,2013-02-06 04:45:00,
2013-02-06 15:50:00,84.0,61.6,29.92,NE,46,2.0,6.0,47,0.00,CLR,,0.00,WeatherDisplay:10.37,2013-02-06 04:50:00,
2013-02-06 15:55:00,83.9,61.5,29.92,NNE,21,5.0,13.0,47,0.00,CLR,,0.00,WeatherDisplay:10.37,2013-02-06 04:55:00,
2013-02-06 16:00:00,83.8,61.5,29.92,ENE,58,2.0,12.0,47,0.00,CLR,,0.00,WeatherDisplay:10.37,2013-02-06 05:00:00,
2013-02-06 16:05:00,83.8,61.5,29.92,ENE,76,3.0,7.0,47,0.00,CLR,,0.00,WeatherDisplay:10.37,2013-02-06 05:05:00,
2013-02-06 16:10:00,83.8,61.5,29.92,ENE,65,2.0,8.0,47,0.00,CLR,,0.00,WeatherDisplay:10.37,2013-02-06 05:10:00,
2013-02-06 16:15:00,83.8,61.5,29.92,NE,39,5.0,8.0,47,0.00,CLR,,0.00,WeatherDisplay:10.37,2013-02-06 05:15:00,
2013-02-06 16:20:00,83.9,61.5,29.91,ENE,73,3.0,8.0,47,0.00,CLR,,0.00,WeatherDisplay:10.37,2013-02-06 05:20:00,
2013-02-06 16:25:00,83.6,61.8,29.91,ENE,63,2.0,8.0,48,0.00,CLR,,0.00,WeatherDisplay:10.37,2013-02-06 05:25:00,
2013-02-06 16:30:00,83.5,62.3,29.91,NNW,330,2.0,6.0,49,0.00,CLR,,0.00,WeatherDisplay:10.37,2013-02-06 05:30:00,
2013-02-06 16:35:00,83.3,62.1,29.91,North,352,5.0,12.0,49,0.00,CLR,,0.00,WeatherDisplay:10.37,2013-02-06 05:35:00,
2013-02-06 16:40:00,83.1,62.0,29.91,ENE,59,3.0,12.0,49,0.00,CLR,,0.00,WeatherDisplay:10.37,2013-02-06 05:40:00,
2013-02-06 16:45:00,82.9,61.8,29.91,NE,53,7.0,12.0,49,0.00,CLR,,0.00,WeatherDisplay:10.37,2013-02-06 05:45:00,
2013-02-06 16:50:00,82.6,61.5,29.91,ENE,63,3.0,11.0,49,0.00,CLR,,0.00,WeatherDisplay:10.37,2013-02-06 05:50:00,
2013-02-06 16:55:00,82.6,61.5,29.91,ENE,63,5.0,8.0,49,0.00,CLR,,0.00,WeatherDisplay:10.37,2013-02-06 05:55:00,
2013-02-06 17:00:00,82.2,60.6,29.91,NE,47,7.0,16.0,48,0.00,CLR,,0.00,WeatherDisplay:10.37,2013-02-06 06:00:00,
2013-02-06 17:05:00,82.2,60.0,29.91,NE,45,5.0,10.0,47,0.00,CLR,,0.00,WeatherDisplay:10.37,2013-02-06 06:05:00,
2013-02-06 17:10:00,81.9,59.7,29.91,NE,46,3.0,9.0,47,0.00,CLR,,0.00,WeatherDisplay:10.37,2013-02-06 06:10:00,
2013-02-06 17:15:00,81.7,58.9,29.91,NE,49,5.0,15.0,46,0.00,CLR,,0.00,WeatherDisplay:10.37,2013-02-06 06:15:00,
2013-02-06 17:20:00,81.7,58.9,29.90,NE,53,2.0,10.0,46,0.00,CLR,,0.00,WeatherDisplay:10.37,2013-02-06 06:20:00,
2013-02-06 17:30:00,81.7,58.9,29.90,NE,42,2.0,9.0,46,0.00,CLR,,0.00,WeatherDisplay:10.37,2013-02-06 06:30:00,
2013-02-06 17:35:00,81.5,59.4,29.90,NNE,17,1.0,12.0,47,0.00,CLR,,0.00,WeatherDisplay:10.37,2013-02-06 06:35:00,
2013-02-06 17:40:00,81.5,59.3,29.90,NE,36,3.0,7.0,47,0.00,CLR,,0.00,WeatherDisplay:10.37,2013-02-06 06:40:00,
2013-02-06 17:45:00,81.3,59.8,29.90,ENE,72,2.0,7.0,48,0.00,CLR,,0.00,WeatherDisplay:10.37,2013-02-06 06:45:00,
2013-02-06 17:50:00,81.1,59.6,29.90,ENE,64,3.0,9.0,48,0.00,CLR,,0.00,WeatherDisplay:10.37,2013-02-06 06:50:00,
2013-02-06 17:55:00,81.0,60.0,29.90,NE,43,3.0,10.0,49,0.00,CLR,,0.00,WeatherDisplay:10.37,2013-02-06 06:55:00,
2013-02-06 18:00:00,81.0,60.0,29.90,NE,35,2.0,7.0,49,0.00,CLR,,0.00,WeatherDisplay:10.37,2013-02-06 07:00:00,
2013-02-06 18:05:00,80.8,59.8,29.90,NE,48,3.0,9.0,49,0.00,CLR,,0.00,WeatherDisplay:10.37,2013-02-06 07:05:00,
2013-02-06 18:10:00,80.5,60.1,29.90,NE,37,2.0,6.0,50,0.00,CLR,,0.00,WeatherDisplay:10.37,2013-02-06 07:10:00,
2013-02-06 18:15:00,80.4,60.1,29.91,NNE,21,1.0,6.0,50,0.00,CLR,,0.00,WeatherDisplay:10.37,2013-02-06 07:15:00,
2013-02-06 18:20:00,80.4,60.6,29.90,NE,50,6.0,9.0,51,0.00,CLR,,0.00,WeatherDisplay:10.37,2013-02-06 07:20:00,
2013-02-06 18:25:00,80.2,60.4,29.90,NE,47,3.0,7.0,51,0.00,CLR,,0.00,WeatherDisplay:10.37,2013-02-06 07:25:00,
2013-02-06 18:30:00,79.7,60.0,29.90,NNE,32,2.0,8.0,51,0.00,CLR,,0.00,WeatherDisplay:10.37,2013-02-06 07:30:00,
2013-02-06 18:35:00,79.5,59.8,29.90,NE,51,2.0,7.0,51,0.00,CLR,,0.00,WeatherDisplay:10.37,2013-02-06 07:35:00,
2013-02-06 18:40:00,79.2,59.5,29.90,ESE,107,2.0,6.0,51,0.00,CLR,,0.00,WeatherDisplay:10.37,2013-02-06 07:40:00,
2013-02-06 18:45:00,79.0,59.9,29.91,East,93,1.0,5.0,52,0.00,CLR,,0.00,WeatherDisplay:10.37,2013-02-06 07:45:00,
2013-02-06 18:50:00,78.6,59.5,29.90,ENE,69,1.0,5.0,52,0.00,CLR,,0.00,WeatherDisplay:10.37,2013-02-06 07:50:00,
2013-02-06 18:55:00,78.4,59.4,29.91,ENE,69,2.0,8.0,52,0.00,CLR,,0.00,WeatherDisplay:10.37,2013-02-06 07:55:00,
2013-02-06 19:00:00,78.1,59.0,29.91,East,80,3.0,6.0,52,0.00,CLR,,0.00,WeatherDisplay:10.37,2013-02-06 08:00:00,
2013-02-06 19:05:00,77.8,59.3,29.91,ESE,102,1.0,2.0,53,0.00,CLR,,0.00,WeatherDisplay:10.37,2013-02-06 08:05:00,
2013-02-06 19:10:00,77.7,59.2,29.91,East,85,2.0,7.0,53,0.00,CLR,,0.00,WeatherDisplay:10.37,2013-02-06 08:10:00,
2013-02-06 19:15:00,77.5,59.6,29.91,ENE,58,1.0,7.0,54,0.00,CLR,,0.00,WeatherDisplay:10.37,2013-02-06 08:15:00,
2013-02-06 19:20:00,77.3,59.3,29.91,NNE,21,1.0,5.0,54,0.00,CLR,,0.00,WeatherDisplay:10.37,2013-02-06 08:20:00,
2013-02-06 19:25:00,77.2,59.2,29.91,ENE,61,1.0,6.0,54,0.00,CLR,,0.00,WeatherDisplay:10.37,2013-02-06 08:25:00,
2013-02-06 19:30:00,76.8,59.4,29.91,ENE,59,2.0,6.0,55,0.00,CLR,,0.00,WeatherDisplay:10.37,2013-02-06 08:30:00,
2013-02-06 19:35:00,76.8,59.4,29.91,North,354,5.0,7.0,55,0.00,CLR,,0.00,WeatherDisplay:10.37,2013-02-06 08:35:00,
2013-02-06 19:40:00,76.6,59.8,29.91,NNW,332,1.0,5.0,56,0.00,CLR,,0.00,WeatherDisplay:10.37,2013-02-06 08:40:00,
2013-02-06 19:45:00,76.5,59.7,29.92,NNW,333,0.0,5.0,56,0.00,CLR,,0.00,WeatherDisplay:10.37,2013-02-06 08:45:00,
2013-02-06 19:50:00,76.3,59.4,29.92,NNE,23,0.0,5.0,56,0.00,CLR,,0.00,WeatherDisplay:10.37,2013-02-06 08:50:00,
2013-02-06 19:55:00,76.2,59.3,29.92,NNE,17,0.0,7.0,56,0.00,CLR,,0.00,WeatherDisplay:10.37,2013-02-06 08:55:00,
2013-02-06 20:00:00,75.9,59.6,29.92,NNE,33,0.0,3.0,57,0.00,CLR,,0.00,WeatherDisplay:10.37,2013-02-06 09:00:00,
2013-02-06 20:05:00,75.9,59.6,29.92,NE,47,1.0,6.0,57,0.00,CLR,,0.00,WeatherDisplay:10.37,2013-02-06 09:05:00,
2013-02-06 20:10:00,75.7,59.4,29.92,ENE,71,1.0,5.0,57,0.00,CLR,,0.00,WeatherDisplay:10.37,2013-02-06 09:10:00,
2013-02-06 20:15:00,75.7,59.4,29.92,NE,47,2.0,6.0,57,0.00,CLR,,0.00,WeatherDisplay:10.37,2013-02-06 09:15:00,
2013-02-06 20:20:00,75.6,59.7,29.92,NNE,26,2.0,6.0,58,0.00,CLR,,0.00,WeatherDisplay:10.37,2013-02-06 09:20:00,
2013-02-06 20:25:00,75.4,59.6,29.92,NNE,27,0.0,5.0,58,0.00,CLR,,0.00,WeatherDisplay:10.37,2013-02-06 09:25:00,
2013-02-06 20:30:00,75.3,59.5,29.92,NE,53,0.0,3.0,58,0.00,CLR,,0.00,WeatherDisplay:10.37,2013-02-06 09:30:00,
2013-02-06 20:35:00,75.0,59.7,29.92,NNE,22,0.0,5.0,59,0.00,CLR,,0.00,WeatherDisplay:10.37,2013-02-06 09:35:00,
2013-02-06 20:40:00,75.0,59.7,29.92,NNE,19,0.0,4.0,59,0.00,CLR,,0.00,WeatherDisplay:10.37,2013-02-06 09:40:00,
2013-02-06 20:45:00,75.0,59.7,29.92,NE,41,0.0,3.0,59,0.00,CLR,,0.00,WeatherDisplay:10.37,2013-02-06 09:45:00,
2013-02-06 20:50:00,74.8,59.5,29.92,NE,53,1.0,6.0,59,0.00,CLR,,0.00,WeatherDisplay:10.37,2013-02-06 09:50:00,
2013-02-06 20:55:00,74.8,59.5,29.93,ENE,66,1.0,4.0,59,0.00,CLR,,0.00,WeatherDisplay:10.37,2013-02-06 09:55:00,
2013-02-06 21:00:00,74.6,59.8,29.93,ENE,65,0.0,7.0,60,0.00,CLR,,0.00,WeatherDisplay:10.37,2013-02-06 10:00:00,
2013-02-06 21:05:00,74.5,59.7,29.93,ENE,57,2.0,6.0,60,0.00,CLR,,0.00,WeatherDisplay:10.37,2013-02-06 10:05:00,
2013-02-06 21:10:00,74.5,59.7,29.93,NE,38,2.0,7.0,60,0.00,CLR,,0.00,WeatherDisplay:10.37,2013-02-06 10:10:00,
2013-02-06 21:15:00,74.4,59.6,29.93,NE,38,2.0,7.0,60,0.00,CLR,,0.00,WeatherDisplay:10.37,2013-02-06 10:15:00,
2013-02-06 21:20:00,74.3,59.5,29.93,NE,38,1.0,6.0,60,0.00,CLR,,0.00,WeatherDisplay:10.37,2013-02-06 10:20:00,
2013-02-06 21:25:00,74.1,59.3,29.93,NE,56,3.0,8.0,60,0.00,CLR,,0.00,WeatherDisplay:10.37,2013-02-06 10:25:00,
2013-02-06 21:30:00,74.1,59.3,29.94,ENE,58,1.0,5.0,60,0.00,CLR,,0.00,WeatherDisplay:10.37,2013-02-06 10:30:00,
2013-02-06 21:35:00,73.9,59.2,29.93,NE,51,3.0,6.0,60,0.00,CLR,,0.00,WeatherDisplay:10.37,2013-02-06 10:35:00,
2013-02-06 21:40:00,73.9,59.6,29.93,NE,55,1.0,6.0,61,0.00,CLR,,0.00,WeatherDisplay:10.37,2013-02-06 10:40:00,
2013-02-06 21:45:00,73.9,59.6,29.93,NE,43,2.0,6.0,61,0.00,CLR,,0.00,WeatherDisplay:10.37,2013-02-06 10:45:00,
2013-02-06 21:50:00,73.9,59.6,29.93,NNE,16,1.0,7.0,61,0.00,CLR,,0.00,WeatherDisplay:10.37,2013-02-06 10:50:00,
2013-02-06 21:55:00,73.8,59.5,29.93,NNE,31,2.0,5.0,61,0.00,CLR,,0.00,WeatherDisplay:10.37,2013-02-06 10:55:00,
2013-02-06 22:00:00,73.6,59.8,29.93,NE,43,2.0,7.0,62,0.00,CLR,,0.00,WeatherDisplay:10.37,2013-02-06 11:00:00,
2013-02-06 22:05:00,73.6,59.8,29.93,NE,41,1.0,7.0,62,0.00,CLR,,0.00,WeatherDisplay:10.37,2013-02-06 11:05:00,
2013-02-06 22:10:00,73.6,59.8,29.94,NE,52,1.0,5.0,62,0.00,CLR,,0.00,WeatherDisplay:10.37,2013-02-06 11:10:00,
2013-02-06 22:15:00,73.5,59.7,29.94,NE,51,2.0,6.0,62,0.00,CLR,,0.00,WeatherDisplay:10.37,2013-02-06 11:15:00,
2013-02-06 22:20:00,73.3,59.9,29.94,NE,38,0.0,2.0,63,0.00,CLR,,0.00,WeatherDisplay:10.37,2013-02-06 11:20:00,
2013-02-06 22:25:00,73.2,59.9,29.94,NE,34,0.0,4.0,63,0.00,CLR,,0.00,WeatherDisplay:10.37,2013-02-06 11:25:00,
2013-02-06 22:30:00,73.2,59.9,29.93,NE,42,1.0,6.0,63,0.00,CLR,,0.00,WeatherDisplay:10.37,2013-02-06 11:30:00,
2013-02-06 22:35:00,73.2,60.3,29.93,NE,48,1.0,5.0,64,0.00,CLR,,0.00,WeatherDisplay:10.37,2013-02-06 11:35:00,
2013-02-06 22:40:00,73.0,60.1,29.94,NE,48,0.0,5.0,64,0.00,CLR,,0.00,WeatherDisplay:10.37,2013-02-06 11:40:00,
2013-02-06 22:45:00,73.0,60.1,29.93,NE,41,1.0,5.0,64,0.00,CLR,,0.00,WeatherDisplay:10.37,2013-02-06 11:45:00,
2013-02-06 22:50:00,73.0,60.1,29.93,NE,41,1.0,4.0,64,0.00,CLR,,0.00,WeatherDisplay:10.37,2013-02-06 11:50:00,
2013-02-06 22:55:00,72.9,60.0,29.93,NE,51,1.0,6.0,64,0.00,CLR,,0.00,WeatherDisplay:10.37,2013-02-06 11:55:00,
2013-02-06 23:00:00,72.7,59.8,29.93,NE,54,1.0,3.0,64,0.00,CLR,,0.00,WeatherDisplay:10.37,2013-02-06 12:00:00,
2013-02-06 23:05:00,72.7,59.8,29.93,NE,48,1.0,3.0,64,0.00,CLR,,0.00,WeatherDisplay:10.37,2013-02-06 12:05:00,
2013-02-06 23:10:00,72.5,60.1,29.93,NE,37,1.0,4.0,65,0.00,CLR,,0.00,WeatherDisplay:10.37,2013-02-06 12:10:00,
2013-02-06 23:15:00,72.4,59.9,29.93,NE,35,0.0,2.0,65,0.00,CLR,,0.00,WeatherDisplay:10.37,2013-02-06 12:15:00,
2013-02-06 23:20:00,72.3,59.9,29.93,NE,41,1.0,5.0,65,0.00,CLR,,0.00,WeatherDisplay:10.37,2013-02-06 12:20:00,
2013-02-06 23:25:00,72.3,59.9,29.93,NE,40,0.0,4.0,65,0.00,CLR,,0.00,WeatherDisplay:10.37,2013-02-06 12:25:00,
2013-02-06 23:30:00,72.3,59.9,29.93,NNE,33,0.0,3.0,65,0.00,CLR,,0.00,WeatherDisplay:10.37,2013-02-06 12:30:00,
2013-02-06 23:35:00,72.1,59.7,29.93,NE,46,0.0,0.0,65,0.00,CLR,,0.00,WeatherDisplay:10.37,2013-02-06 12:35:00,
2013-02-06 23:40:00,72.1,59.7,29.93,NE,45,0.0,2.0,65,0.00,CLR,,0.00,WeatherDisplay:10.37,2013-02-06 12:40:00,
2013-02-06 23:45:00,72.0,60.0,29.93,NE,46,1.0,3.0,66,0.00,CLR,,0.00,WeatherDisplay:10.37,2013-02-06 12:45:00,
2013-02-06 23:50:00,71.9,59.9,29.93,ENE,58,0.0,0.0,66,0.00,CLR,,0.00,WeatherDisplay:10.37,2013-02-06 12:50:00,
2013-02-06 23:55:00,71.8,59.8,29.93,ENE,59,0.0,2.0,66,0.00,CLR,,0.00,WeatherDisplay:10.37,2013-02-06 12:55:00,